Skip Navigation Links
NOAA logo - Click to go to the NOAA homepage
NOAA's National Weather Service
Alaska Aviation Weather Unit
  NWS logo - Click to go to the NWS homepage
Left Navbar Graphic     01 AKDT = 09 GMT

   
NOAA is celebrating 200 years of science, service, and stewardship. Visit the NOAA 200th celebration Web site to learn more.
USA.gov is the U.S. Government's official Web portal to all Federal, state and local government Web resources and services.
Facebook
NWS on Facebook

Important Change Regarding the AAWU Web Presence

 

Over the last several months, the AAWU has been working to navigate its webpages to a nationally supported server. Security, as well as other needs, have necessitated the change.  We have been given an extension for the site changeover while we diligently work at addressing feedback received. As of July 14, 2017, aawu.arh.noaa.gov will be discontinued. The new AAWU web address is weather.gov/aawu. It is now live and will run in-parallel with the old site until it is discontinued on July 14, 2017. Please continue to send any feedback or questions regarding the new webpages to nws.ar.aawu.webauthors@noaa.gov.  Thank you for your patience during this time of transition.
AAWU Home :: Display TAF Add Bookmark
TAF PACV 190538Z 1906/2006  09010KT 6SM -RA SCT020 OVC030
      TEMPO 1906/1910 09010G20KT 5SM -RA BKN020
     FM191000 09010G20KT 6SM -RA BKN020 OVC030
     FM191500 09010KT 5SM -RA BKN012 OVC025
     FM192100 VRB03KT P6SM -SHRA BKN025=

9042
FTAK31 PANC 190538
TAFAHO
TAF
METAR PACV 190353Z 08006KT 10SM BKN028 OVC055 11/08 A2981 RMK AO2
     RAB28E40 SLP094 P0000 T01060078 $=

SPECI PACV 190430Z 07005KT 10SM -RA BKN030 BKN035 OVC049 10/08 A2980 RMK
     AO2 RAB0359 P0001 T01000078 $=

METAR PACV 190453Z 07008KT 10SM BKN033 OVC075 10/07 A2980 RMK AO2
     RAB0359E35 SLP090 P0001 T01000072 $=

METAR PACV 190553Z 11006KT 9SM -RA BKN036 OVC043 11/07 A2979 RMK AO2
     RAB50 SLP089 P0000 60001 T01060072 10122 20100 58006 $=

METAR PACV 190653Z 06005KT 10SM -RA BKN030 BKN039 OVC050 10/09 A2979
 RMK AO2 SLP088 P0006 T01000089 $=

METAR PACV 190753Z 07007G15KT 10SM -RA OVC050 09/08 A2977 RMK AO2 SLP081
     P0003 T00940078 $=

METAR PACV 190853Z 09008KT 10SM -RA FEW035 OVC044 10/08 A2977 RMK AO2
     SLP080 P0002 60011 T01000078 401220056 58009 $=


NOAA's National Weather Service
Alaska Aviation Weather Unit
6930 Sand Lake Road
Anchorage, AK 99502-1845
Disclaimer
Credits
Glossary
Privacy Policy
About Us
Career Opportunities
Contact AAWU Internet Services Site last modified: April, 17th 2012